ココス島国際空港の過去48時間の天気

ココス島国際空港 (Cocos Island Airport)

現在時刻: 9/26 02:28 +0630 (9/25 19:58 UTC) 以下の時間は現地時間です。

過去48時間のMETAR気象情報
時間 風向 風速(m/s) 視程 気温(℃) 湿度(%) 気圧(hPa) 天気現象
26 02:00 東南東 6 10km以上 26 84 1012
26 01:30 東南東 6 10km以上 26 84 1012
26 01:00 東南東 6 10km以上 26 84 1012
26 00:30 東南東 6 10km以上 26 89 1013
26 00:00 東南東 6 10km以上 26 89 1013
25 23:30 東南東 6 10km以上 26 84 1013
25 23:00 南東 8 10km以上 26 89 1014
25 22:30 東南東 6 10km以上 25 89 1014
25 22:10 東南東 6 7000m 24 94 1014
25 22:00 東南東 6 6000m 24 94 1014
25 21:38 東南東 8 2800m 25 89 1014
25 21:00 東南東 6 10km以上 25 89 1014
25 20:37 東南東 6 10km以上 25 94 1014
25 20:10 東南東 8 5000m 25 94 1014
25 20:00 南東 8 10km以上 26 89 1013
25 19:31 南東 8 10km以上 26 89 1013
25 19:09 南東 7 6000m 26 89 1013
25 19:00 南東 7 10km以上 25 94 1013
25 18:51 南東 7 9000m 25 94 1013
25 18:30 東南東 5 6000m 25 94 1012
25 18:17 東南東 6 6000m 26 84 1012
25 18:13 東南東 6 10km以上 26 84 1012
25 18:02 東南東 6 6000m 25 89 1012
25 17:50 東南東 5 10km以上 25 94 1012
25 17:30 8 2300m 25 94 1012
25 17:10 東南東 7 5000m 26 84 1011
25 16:30 東南東 6 10km以上 27 79 1011
25 16:00 東南東 8 10km以上 27 79 1010
25 15:30 東南東 7 10km以上 27 79 1010
25 15:00 東南東 6 10km以上 27 79 1010
25 14:30 東南東 6 10km以上 27 84 1011
25 14:00 東南東 6 10km以上 27 84 1011
25 13:30 東南東 7 10km以上 26 89 1011
25 13:24 東南東 6 10km以上 26 89 1011
25 13:07 東南東 6 6000m 26 89 1011
25 12:58 東南東 6 10km以上 26 89 1011
25 12:34 東南東 9 5000m 26 89 1012
25 12:00 東南東 7 10km以上 28 79 1012
25 11:30 東南東 6 10km以上 28 74 1013
25 11:00 東南東 7 10km以上 28 79 1013
25 10:30 東南東 6 10km以上 27 84 1013
25 10:00 東南東 6 10km以上 26 89 1013
25 09:58 東南東 6 10km以上 25 94 1013
25 09:32 東南東 9 6000m 26 84 1013
25 09:30 東南東 8 10km以上 26 84 1013
25 09:00 東南東 7 10km以上 27 79 1013
25 08:30 東南東 7 10km以上 26 84 1013
25 08:00 東南東 7 10km以上 26 84 1013
25 07:31 東南東 7 10km以上 26 84 1013
25 07:09 東南東 8 6000m 26 84 1012
25 07:00 東南東 7 10km以上 26 84 1012
25 06:30 東南東 7 10km以上 25 83 1012
25 06:00 東南東 7 10km以上 26 84 1011
25 05:30 東南東 7 10km以上 26 84 1011
25 05:00 東南東 6 10km以上 26 84 1011
25 04:30 東南東 7 10km以上 26 79 1011
25 04:00 東南東 7 10km以上 26 84 1011
25 03:30 東南東 7 10km以上 26 84 1011
25 03:00 東南東 6 10km以上 26 79 1011
25 02:30 東南東 8 10km以上 26 79 1011
25 02:00 東南東 8 10km以上 26 79 1011
25 01:30 東南東 7 10km以上 26 84 1012
25 01:00 東南東 8 10km以上 26 79 1012
25 00:30 東南東 6 10km以上 26 79 1013
25 00:00 東南東 7 10km以上 26 84 1013
24 23:30 東南東 7 10km以上 26 84 1013
24 23:00 東南東 8 10km以上 26 79 1013
24 22:33 東南東 8 10km以上 26 84 1014
24 22:00 東南東 8 10km以上 26 79 1014
24 21:30 東南東 7 10km以上 26 84 1014
24 21:00 南東 9 10km以上 26 84 1013
24 20:30 南東 9 10km以上 26 84 1013
24 20:00 南東 10 10km以上 26 84 1013
24 19:30 南東 9 10km以上 26 89 1013
24 19:00 南東 9 10km以上 26 84 1012
24 18:30 南東 8 10km以上 26 84 1012
24 18:00 東南東 8 8000m 26 84 1012
24 17:40 南東 9 6000m 26 84 1012
24 17:00 南東 9 10km以上 26 84 1011
24 16:30 南東 8 10km以上 27 79 1011
24 16:00 東南東 8 10km以上 27 79 1011
24 15:30 南東 10 10km以上 27 79 1011
24 15:00 東南東 7 8000m 26 79 1011
24 14:30 東南東 8 10km以上 28 70 1011
24 14:00 東南東 7 10km以上 28 74 1011
24 13:30 東南東 7 10km以上 27 79 1011
24 13:00 東南東 6 10km以上 28 74 1012
24 12:30 南東 9 10km以上 28 74 1012
24 12:00 東南東 7 10km以上 28 70 1012
24 11:30 東南東 7 10km以上 28 74 1013
24 11:00 東南東 7 10km以上 28 74 1013
24 10:30 東南東 6 10km以上 28 70 1014
24 10:00 東南東 7 10km以上 28 74 1014
24 09:30 東南東 6 10km以上 28 74 1014
24 09:00 東南東 6 10km以上 27 79 1014
24 08:30 東南東 6 10km以上 27 79 1014
24 08:00 東南東 7 10km以上 27 74 1013
24 07:30 東南東 7 10km以上 27 74 1013
24 07:00 東南東 6 10km以上 26 84 1013
24 06:30 東南東 6 10km以上 26 79 1012
24 06:00 東南東 7 10km以上 26 79 1012
24 05:30 東南東 6 10km以上 26 79 1011
24 05:00 東南東 7 10km以上 26 84 1011
24 04:30 東南東 5 10km以上 25 89 1010
24 04:00 南東 9 10km以上 25 83 1010
24 03:51 南東 10 10km以上 25 83 1011
24 03:30 東南東 5 10km以上 26 79 1010
24 03:00 東南東 5 10km以上 26 79 1011
24 02:30 東南東 5 10km以上 26 79 1011
YPCC 251930Z AUTO 12012KT 9999 // BKN018 BKN033 BKN056 26/23 Q1012
YPCC 251900Z AUTO 12012KT 9999 // SCT016 BKN022 BKN027 26/23 Q1012
YPCC 251830Z AUTO 11011KT 9999 // SCT016 BKN021 BKN027 26/23 Q1012
YPCC 251800Z AUTO 12011KT 9999 // BKN017 OVC025 26/24 Q1013
YPCC 251730Z AUTO 11012KT 9999 // BKN017 26/24 Q1013 RF00.0/007.2
YPCC 251700Z AUTO 11012KT 9999 // SCT017 SCT029 BKN038 26/23 Q1013
YPCC 251630Z AUTO 13016KT 9999 // SCT013 SCT038 OVC060 26/24 Q1014
YPCC 251600Z AUTO 12011KT 9999 // BKN040 OVC046 25/23 Q1014
YPCC 251540Z AUTO 11011KT 7000 // SCT036 BKN044 BKN051 24/23 Q1014
YPCC 251530Z AUTO 11011KT 6000 // SCT006 SCT016 SCT036 24/23 Q1014
YPCC 251508Z AUTO 11015G26KT 2800 // SCT013 SCT019 SCT028 25/23 Q1014
YPCC 251430Z AUTO 12012KT 9999 // BKN034 OVC045 25/23 Q1014
YPCC 251407Z AUTO 12011KT 9999 // SCT032 OVC043 25/24 Q1014
YPCC 251340Z AUTO 11015G26KT 5000 // SCT014 SCT020 BKN025 25/24 Q1014
YPCC 251330Z AUTO 13015KT 9999 // SCT018 BKN025 OVC034 26/24 Q1013
YPCC 251301Z AUTO 13015KT 9999 // SCT016 BKN027 BKN037 26/24 Q1013
YPCC 251239Z AUTO 13014KT 6000 // SCT014 SCT028 BKN042 26/24 Q1013
YPCC 251230Z AUTO 13013KT 9999 // SCT009 SCT023 BKN042 25/24 Q1013
YPCC 251221Z AUTO 13014KT 9000 // SCT009 SCT023 OVC044 25/24 Q1013
YPCC 251200Z AUTO 11010KT 6000 // SCT020 SCT026 BKN035 25/24 Q1012
YPCC 251147Z AUTO 12011KT 6000 // BKN020 BKN029 BKN048 26/23 Q1012
YPCC 251143Z AUTO 12011KT 9999 // SCT020 BKN029 BKN035 26/23 Q1012
YPCC 251132Z AUTO 12012KT 6000 // BKN020 BKN030 BKN035 25/23 Q1012
YPCC 251120Z AUTO 12010KT 9999 // SCT014 SCT019 SCT025 25/24 Q1012
YPCC 251100Z AUTO 10015G25KT 2300 // SCT014 BKN021 BKN032 25/24 Q1012
YPCC 251040Z AUTO 12013KT 5000 // SCT015 BKN020 BKN025 26/23 Q1011
YPCC 251000Z AUTO 11012KT 9999 // SCT024 SCT038 BKN042 27/23 Q1011
YPCC 250930Z AUTO 12015KT 9999 // SCT020 BKN024 BKN030 27/23 Q1010
YPCC 250900Z AUTO 12013KT 9999 // SCT020 BKN026 BKN034 27/23 Q1010
YPCC 250830Z AUTO 11011KT 9999 // SCT020 BKN024 BKN034 27/23 Q1010
YPCC 250800Z AUTO 11011KT 9999 // SCT020 BKN026 BKN039 27/24 Q1011
YPCC 250730Z AUTO 11012KT 9999 // SCT018 SCT032 BKN046 27/24 Q1011
YPCC 250700Z AUTO 11013KT 9999 // SCT018 BKN023 BKN033 26/24 Q1011
YPCC 250654Z AUTO 12012KT 9999 // SCT018 BKN023 OVC033 26/24 Q1011
YPCC 250637Z AUTO 12012KT 6000 // SCT019 BKN024 BKN033 26/24 Q1011
YPCC 250628Z AUTO 12011KT 9999 // SCT016 SCT024 BKN045 26/24 Q1011
YPCC 250604Z AUTO 11017G28KT 5000 // SCT019 BKN024 BKN032 26/24 Q1012
YPCC 250530Z AUTO 11013KT 9999 // SCT021 SCT026 SCT034 28/24 Q1012
YPCC 250500Z AUTO 11012KT 9999 // BKN019 BKN026 OVC037 28/23 Q1013
YPCC 250430Z AUTO 11013KT 9999 // SCT021 BKN026 BKN033 28/24 Q1013
YPCC 250400Z AUTO 11012G22KT 9999 // SCT021 SCT030 OVC043 27/24 Q1013
YPCC 250330Z AUTO 11011KT 9999 // SCT020 SCT033 OVC041 26/24 Q1013
YPCC 250328Z AUTO 11011KT 9999 // SCT011 SCT020 SCT032 25/24 Q1013
YPCC 250302Z AUTO 11018G32KT 6000 // SCT010 SCT020 BKN027 26/23 Q1013
YPCC 250300Z AUTO 11015G27KT 9999 // SCT020 BKN027 OVC032 26/23 Q1013
YPCC 250230Z AUTO 12014KT 9999 // SCT020 SCT028 SCT034 27/23 Q1013
YPCC 250200Z AUTO 12014KT 9999 // SCT020 SCT033 BKN046 26/23 Q1013
YPCC 250130Z AUTO 12014KT 9999 // BKN020 BKN024 OVC034 26/23 Q1013
YPCC 250101Z AUTO 12014KT 9999 // SCT022 BKN042 BKN049 26/23 Q1013
YPCC 250039Z AUTO 11015G29KT 6000 // SCT019 BKN028 BKN036 26/23 Q1012
YPCC 250030Z AUTO 12014KT 9999 // SCT021 SCT030 SCT039 26/23 Q1012
YPCC 250000Z AUTO 11013KT 9999 // SCT019 BKN029 BKN035 25/22 Q1012
YPCC 242330Z AUTO 12013KT 9999 // SCT019 BKN025 OVC062 26/23 Q1011
YPCC 242300Z AUTO 11013KT 9999 // BKN019 OVC064 26/23 Q1011
YPCC 242230Z AUTO 11012KT 9999 // SCT052 OVC065 26/23 Q1011
YPCC 242200Z AUTO 11014G24KT 9999 // SCT019 SCT036 OVC058 26/22 Q1011
YPCC 242130Z AUTO 11013G24KT 9999 // SCT019 SCT026 BKN036 26/23 Q1011
YPCC 242100Z AUTO 12014KT 9999 // SCT022 SCT029 BKN037 26/23 Q1011
YPCC 242030Z AUTO 11012KT 9999 // SCT020 SCT034 SCT042 26/22 Q1011
YPCC 242000Z AUTO 12015KT 9999 // SCT020 SCT029 BKN039 26/22 Q1011
YPCC 241930Z AUTO 12015G25KT 9999 // SCT022 SCT033 BKN041 26/22 Q1011
YPCC 241900Z AUTO 12014KT 9999 // SCT020 BKN031 OVC036 26/23 Q1012
YPCC 241830Z AUTO 12015KT 9999 // BKN020 BKN029 26/22 Q1012
YPCC 241800Z AUTO 11012KT 9999 // SCT018 BKN027 BKN032 26/22 Q1013
YPCC 241730Z AUTO 12013KT 9999 // BKN018 BKN026 OVC032 26/23 Q1013
YPCC 241700Z AUTO 12014KT 9999 // BKN018 BKN030 BKN037 26/23 Q1013
YPCC 241630Z AUTO 12016KT 9999 // SCT020 BKN028 BKN039 26/22 Q1013
YPCC 241603Z AUTO 12015G25KT 9999 // SCT020 BKN025 BKN032 26/23 Q1014
YPCC 241530Z AUTO 12016KT 9999 // BKN022 BKN034 26/22 Q1014
YPCC 241500Z AUTO 12013KT 9999 // BKN022 BKN035 BKN041 26/23 Q1014
YPCC 241430Z AUTO 13017KT 9999 // BKN015 BKN020 26/23 Q1013
YPCC 241400Z AUTO 13018KT 9999 // SCT015 SCT043 26/23 Q1013
YPCC 241330Z AUTO 13019KT 9999 // BKN017 BKN022 OVC035 26/23 Q1013
YPCC 241300Z AUTO 13018KT 9999 // SCT015 26/24 Q1013 RF00.0/000.0
YPCC 241230Z AUTO 13018KT 9999 // SCT020 BKN024 BKN029 26/23 Q1012
YPCC 241200Z AUTO 13015KT 9999 // SCT020 BKN059 OVC081 26/23 Q1012
YPCC 241130Z AUTO 12015KT 8000 // SCT019 SCT028 BKN039 26/23 Q1012
YPCC 241110Z AUTO 13017KT 6000 // SCT021 SCT032 BKN039 26/23 Q1012
YPCC 241030Z AUTO 13017KT 9999 // SCT021 SCT062 OVC076 26/23 Q1011
YPCC 241000Z AUTO 13016KT 9999 // SCT021 SCT027 BKN061 27/23 Q1011
YPCC 240930Z AUTO 12015KT 9999 // SCT024 SCT030 BKN046 27/23 Q1011
YPCC 240900Z AUTO 13019KT 9999 // SCT020 SCT026 BKN032 27/23 Q1011
YPCC 240830Z AUTO 12014KT 8000 // SCT024 BKN040 BKN045 26/22 Q1011
YPCC 240800Z AUTO 12015KT 9999 // SCT022 SCT031 SCT043 28/22 Q1011
YPCC 240730Z AUTO 12014KT 9999 // SCT022 SCT027 BKN034 28/23 Q1011
YPCC 240700Z AUTO 11013KT 9999 // SCT023 BKN029 BKN062 27/23 Q1011
YPCC 240630Z AUTO 12012KT 9999 // SCT023 BKN026 BKN031 28/23 Q1012
YPCC 240600Z AUTO 13017KT 9999 // BKN023 OVC029 28/23 Q1012
YPCC 240530Z AUTO 12014KT 9999 // SCT021 BKN027 BKN032 28/22 Q1012
YPCC 240500Z AUTO 12013KT 9999 // SCT021 BKN030 28/23 Q1013
YPCC 240430Z AUTO 12013KT 9999 // BKN021 BKN027 BKN064 28/23 Q1013
YPCC 240400Z AUTO 11011KT 9999 // SCT025 BKN030 BKN037 28/22 Q1014
YPCC 240330Z AUTO 11013KT 9999 // SCT023 BKN030 OVC038 28/23 Q1014
YPCC 240300Z AUTO 11012KT 9999 // SCT023 SCT028 28/23 Q1014
YPCC 240230Z AUTO 11012KT 9999 // SCT023 BKN071 27/23 Q1014
YPCC 240200Z AUTO 11011KT 9999 // SCT021 BKN030 BKN067 27/23 Q1014
YPCC 240130Z AUTO 12014KT 9999 // SCT021 SCT065 27/22 Q1013
YPCC 240100Z AUTO 12013KT 9999 // SCT021 SCT027 BKN067 27/22 Q1013
YPCC 240030Z AUTO 12012KT 9999 // SCT021 SCT027 BKN035 26/23 Q1013
YPCC 240000Z AUTO 12012KT 9999 // SCT021 OVC060 26/22 Q1012
YPCC 232330Z AUTO 12013KT 9999 // SCT023 BKN040 BKN057 26/22 Q1012
YPCC 232300Z AUTO 11012KT 9999 // SCT021 BKN060 26/22 Q1011
YPCC 232230Z AUTO 12013KT 9999 // SCT021 OVC055 26/23 Q1011
YPCC 232200Z AUTO 12009KT 9999 // SCT019 SCT036 BKN042 25/23 Q1010
YPCC 232130Z AUTO 13017KT 9999 // SCT015 SCT024 BKN029 25/22 Q1010
YPCC 232121Z AUTO 13020KT 9999 // SCT015 BKN020 BKN026 25/22 Q1011
YPCC 232100Z AUTO 11010KT 9999 // SCT021 SCT026 BKN050 26/22 Q1010
YPCC 232030Z AUTO 12010KT 9999 // SCT021 BKN025 26/22 Q1011
YPCC 232000Z AUTO 12010KT 9999 // SCT019 26/22 Q1011 RF00.0/000.0